Time;durP1;ratioP1;P1;durP2;ratioP2;P2;SDS_P1;SDS_P2;PMS_P1;PMS_P2;Temp;Humidity;BMP_temperature;BMP_pressure;BME280_temperature;BME280_humidity;BME280_pressure;Samples;Min_cycle;Max_cycle;Signal;HPM_P1;HPM_P2
2023/07/15 00:02:01;;;;;;;8.45;3.53;;;;;;;;;;5074199;28;20027;-70
2023/07/15 00:04:29;;;;;;;6.57;3.60;;;;;;;;;;5074226;28;20104;-69
2023/07/15 00:06:54;;;;;;;8.48;3.33;;;;;;;;;;5074216;28;20051;-70
2023/07/15 00:09:26;;;;;;;15.50;7.18;;;;;;;;;;5073959;28;20465;-69
2023/07/15 00:11:52;;;;;;;7.00;3.78;;;;;;;;;;5073932;28;20036;-68
2023/07/15 00:14:21;;;;;;;11.32;4.05;;;;;;;;;;5074153;28;20146;-69
2023/07/15 00:16:46;;;;;;;8.98;3.53;;;;;;;;;;5074009;28;20097;-66
2023/07/15 00:19:12;;;;;;;6.82;3.70;;;;;;;;;;5073874;28;20111;-69
2023/07/15 00:21:37;;;;;;;7.68;3.70;;;;;;;;;;5073819;28;20013;-70
2023/07/15 00:24:03;;;;;;;7.82;3.50;;;;;;;;;;5061360;28;20041;-65
2023/07/15 00:26:37;;;;;;;7.32;3.65;;;;;;;;;;5065414;28;20112;-72
2023/07/15 00:29:04;;;;;;;7.55;3.83;;;;;;;;;;5073864;28;20102;-70
2023/07/15 00:31:31;;;;;;;7.45;3.63;;;;;;;;;;5073655;28;20046;-72
2023/07/15 00:33:57;;;;;;;8.18;3.90;;;;;;;;;;5073672;28;20509;-69
2023/07/15 00:36:22;;;;;;;9.10;3.58;;;;;;;;;;5070214;28;20036;-71
2023/07/15 00:38:48;;;;;;;7.18;3.33;;;;;;;;;;5053426;28;20100;-67
2023/07/15 00:41:26;;;;;;;11.73;3.70;;;;;;;;;;5053830;28;20025;-68
2023/07/15 00:43:55;;;;;;;6.68;3.85;;;;;;;;;;5053838;28;20460;-65
2023/07/15 00:46:26;;;;;;;9.45;3.50;;;;;;;;;;5053570;28;20045;-70
2023/07/15 00:48:56;;;;;;;5.80;3.20;;;;;;;;;;5053629;28;20071;-68
2023/07/15 00:51:22;;;;;;;;;;;;;;;;;;5054261;28;20421;-70
2023/07/15 00:53:49;;;;;;;9.32;3.17;;;;;;;;;;5053393;28;20066;-67
2023/07/15 00:56:15;;;;;;;5.53;3.25;;;;;;;;;;5035845;28;20028;-70
2023/07/15 00:58:41;;;;;;;4.90;3.40;;;;;;;;;;5052951;28;20029;-65
2023/07/15 01:01:10;;;;;;;7.50;3.55;;;;;;;;;;5053236;28;20446;-70
2023/07/15 01:03:37;;;;;;;5.95;3.20;;;;;;;;;;5053168;28;20534;-68
2023/07/15 01:06:03;;;;;;;6.10;3.20;;;;;;;;;;5053073;28;20056;-65
2023/07/15 01:08:28;;;;;;;9.23;3.42;;;;;;;;;;5052881;28;20445;-68
2023/07/15 01:10:55;;;;;;;8.18;3.30;;;;;;;;;;5053080;28;20037;-66
2023/07/15 01:13:20;;;;;;;5.65;3.50;;;;;;;;;;5052986;28;20272;-68
2023/07/15 01:15:47;;;;;;;5.05;3.10;;;;;;;;;;5052763;28;20112;-66
2023/07/15 01:18:13;;;;;;;6.00;2.90;;;;;;;;;;5052743;28;20045;-71
2023/07/15 01:20:38;;;;;;;6.13;3.50;;;;;;;;;;5067717;28;20059;-68
2023/07/15 01:23:04;;;;;;;6.70;3.47;;;;;;;;;;5068559;28;20157;-69
2023/07/15 01:25:29;;;;;;;5.38;3.38;;;;;;;;;;5056172;28;20386;-68
2023/07/15 01:27:55;;;;;;;4.80;3.35;;;;;;;;;;5072796;28;20029;-70
2023/07/15 01:30:20;;;;;;;5.38;2.90;;;;;;;;;;5072609;28;20017;-71
2023/07/15 01:32:45;;;;;;;6.20;3.20;;;;;;;;;;5072759;28;20062;-70
2023/07/15 01:35:11;;;;;;;6.55;3.42;;;;;;;;;;5072560;28;20446;-68
2023/07/15 01:37:36;;;;;;;6.25;3.30;;;;;;;;;;5058570;28;20108;-68
2023/07/15 01:40:05;;;;;;;11.35;3.35;;;;;;;;;;5052561;28;20025;-67
2023/07/15 01:42:31;;;;;;;7.75;3.45;;;;;;;;;;5052372;28;20035;-66
2023/07/15 01:44:56;;;;;;;6.90;3.67;;;;;;;;;;5052367;28;20116;-66
2023/07/15 01:47:21;;;;;;;6.93;3.17;;;;;;;;;;5052430;28;20036;-72
2023/07/15 01:49:47;;;;;;;7.07;3.20;;;;;;;;;;5052149;28;20112;-67
2023/07/15 01:52:13;;;;;;;5.78;3.17;;;;;;;;;;5034096;28;20039;-72
2023/07/15 01:54:39;;;;;;;11.90;3.58;;;;;;;;;;5052269;28;20029;-67
2023/07/15 01:57:05;;;;;;;4.97;3.10;;;;;;;;;;5052198;28;20082;-69
2023/07/15 01:59:30;;;;;;;5.55;3.08;;;;;;;;;;5052150;28;20029;-72
2023/07/15 02:01:59;;;;;;;8.77;3.47;;;;;;;;;;5051845;28;20032;-65
2023/07/15 02:04:25;;;;;;;5.30;3.05;;;;;;;;;;5051981;28;20079;-72
2023/07/15 02:06:50;;;;;;;7.07;3.17;;;;;;;;;;5051899;28;20486;-72
2023/07/15 02:09:16;;;;;;;6.35;3.40;;;;;;;;;;5051284;28;20029;-72
2023/07/15 02:11:41;;;;;;;8.82;3.13;;;;;;;;;;5051622;28;20036;-71
2023/07/15 02:14:09;;;;;;;4.55;3.42;;;;;;;;;;5051996;28;20017;-71
2023/07/15 02:16:34;;;;;;;5.75;3.13;;;;;;;;;;5051589;28;20445;-72
2023/07/15 02:19:00;;;;;;;5.88;3.40;;;;;;;;;;5053050;28;20108;-72
2023/07/15 02:21:25;;;;;;;6.43;3.05;;;;;;;;;;5071382;28;20543;-72
2023/07/15 02:23:54;;;;;;;5.15;3.08;;;;;;;;;;5060857;28;20490;-71
2023/07/15 02:26:20;;;;;;;7.40;3.08;;;;;;;;;;5061816;28;20481;-72
2023/07/15 02:28:46;;;;;;;6.13;3.25;;;;;;;;;;5071503;28;20121;-72
2023/07/15 02:31:11;;;;;;;5.47;3.03;;;;;;;;;;5071388;28;20060;-72
2023/07/15 02:33:36;;;;;;;5.25;2.80;;;;;;;;;;5071421;28;20056;-70
2023/07/15 02:36:04;;;;;;;6.05;3.28;;;;;;;;;;5070847;28;20573;-70
2023/07/15 02:38:29;;;;;;;6.40;3.22;;;;;;;;;;5063712;28;20017;-72
2023/07/15 02:40:55;;;;;;;5.85;3.03;;;;;;;;;;5051294;28;20060;-72
2023/07/15 02:43:20;;;;;;;7.30;3.05;;;;;;;;;;5051183;28;20457;-72
2023/07/15 02:45:49;;;;;;;4.55;3.33;;;;;;;;;;5051077;28;20079;-72
2023/07/15 02:48:14;;;;;;;3.92;2.88;;;;;;;;;;5051167;28;20087;-69
2023/07/15 02:50:40;;;;;;;4.43;3.13;;;;;;;;;;5050882;28;20029;-72
2023/07/15 02:53:05;;;;;;;5.82;3.05;;;;;;;;;;5064925;28;20082;-71
2023/07/15 02:55:31;;;;;;;5.85;3.03;;;;;;;;;;5071052;28;20081;-72
2023/07/15 02:57:57;;;;;;;7.30;3.25;;;;;;;;;;5070867;28;20462;-69
2023/07/15 03:00:22;;;;;;;5.90;3.30;;;;;;;;;;5070965;28;20028;-72
2023/07/15 03:02:48;;;;;;;6.10;3.20;;;;;;;;;;5052801;28;20081;-65
2023/07/15 03:05:15;;;;;;;5.43;2.97;;;;;;;;;;5070783;28;20028;-66
2023/07/15 03:07:44;;;;;;;5.40;2.92;;;;;;;;;;5070872;28;20035;-69
2023/07/15 03:10:12;;;;;;;4.72;2.97;;;;;;;;;;5071017;28;20111;-64
2023/07/15 03:12:37;;;;;;;4.90;3.00;;;;;;;;;;5070808;28;20021;-71
2023/07/15 03:15:04;;;;;;;7.70;3.30;;;;;;;;;;5070799;28;20020;-71
2023/07/15 03:17:35;;;;;;;6.53;3.10;;;;;;;;;;5070614;28;20131;-71
2023/07/15 03:20:10;;;;;;;7.15;3.10;;;;;;;;;;5070374;28;20025;-69
2023/07/15 03:22:35;;;;;;;6.10;3.20;;;;;;;;;;5070350;28;20032;-68
2023/07/15 03:25:02;;;;;;;6.00;3.22;;;;;;;;;;5050795;28;20021;-69
2023/07/15 03:27:28;;;;;;;9.02;3.22;;;;;;;;;;5070437;28;20539;-64
2023/07/15 03:29:54;;;;;;;7.43;3.17;;;;;;;;;;5070987;28;20033;-66
2023/07/15 03:32:19;;;;;;;11.75;6.57;;;;;;;;;;5070370;28;20054;-68
2023/07/15 03:34:45;;;;;;;7.82;3.83;;;;;;;;;;5070464;28;20452;-71
2023/07/15 03:37:10;;;;;;;11.98;7.28;;;;;;;;;;5060334;28;20025;-69
2023/07/15 03:39:35;;;;;;;10.27;5.47;;;;;;;;;;5050640;28;20035;-70
2023/07/15 03:42:02;;;;;;;7.60;3.88;;;;;;;;;;5050344;28;20444;-69
2023/07/15 03:44:27;;;;;;;5.95;3.55;;;;;;;;;;5050411;28;20036;-68
2023/07/15 03:46:54;;;;;;;5.85;3.42;;;;;;;;;;5050251;28;20485;-71
2023/07/15 03:49:20;;;;;;;8.70;3.40;;;;;;;;;;5050724;28;20385;-69
2023/07/15 03:51:46;;;;;;;7.05;3.20;;;;;;;;;;5050213;28;20025;-69
2023/07/15 03:54:11;;;;;;;4.90;3.03;;;;;;;;;;5050371;28;20081;-67
2023/07/15 03:56:36;;;;;;;4.47;3.10;;;;;;;;;;5050366;28;20485;-69
2023/07/15 03:59:02;;;;;;;6.18;3.13;;;;;;;;;;5050259;28;20037;-66
2023/07/15 04:01:27;;;;;;;5.40;3.20;;;;;;;;;;5050022;28;20040;-68
2023/07/15 04:03:53;;;;;;;8.70;3.15;;;;;;;;;;5050027;28;20362;-69
2023/07/15 04:06:18;;;;;;;6.47;3.53;;;;;;;;;;5049968;28;20021;-68
2023/07/15 04:08:44;;;;;;;7.35;3.15;;;;;;;;;;5050216;28;20107;-70
2023/07/15 04:11:09;;;;;;;6.38;2.97;;;;;;;;;;5050099;28;20033;-67
2023/07/15 04:13:36;;;;;;;5.53;3.35;;;;;;;;;;5067967;28;20480;-67
2023/07/15 04:16:02;;;;;;;6.55;3.35;;;;;;;;;;5069841;28;20122;-68
2023/07/15 04:18:27;;;;;;;5.90;3.50;;;;;;;;;;5069940;28;20087;-68
2023/07/15 04:20:53;;;;;;;6.85;3.58;;;;;;;;;;5069930;28;20033;-68
2023/07/15 04:23:18;;;;;;;4.88;2.80;;;;;;;;;;5063736;28;20025;-71
2023/07/15 04:25:46;;;;;;;5.93;3.05;;;;;;;;;;5055193;28;20024;-67
2023/07/15 04:28:12;;;;;;;5.18;3.13;;;;;;;;;;5070035;28;20025;-71
2023/07/15 04:30:37;;;;;;;4.97;2.95;;;;;;;;;;5069815;28;20028;-68
2023/07/15 04:33:03;;;;;;;5.97;2.88;;;;;;;;;;5070561;28;20016;-67
2023/07/15 04:35:28;;;;;;;5.80;3.35;;;;;;;;;;5073584;28;20427;-67
2023/07/15 04:37:53;;;;;;;6.40;2.90;;;;;;;;;;5057702;28;20033;-65
2023/07/15 04:40:19;;;;;;;5.35;2.85;;;;;;;;;;5053585;28;20127;-67
2023/07/15 04:42:44;;;;;;;8.93;2.92;;;;;;;;;;5053556;28;20207;-65
2023/07/15 04:45:10;;;;;;;6.18;3.30;;;;;;;;;;5035376;28;20047;-70
2023/07/15 04:47:36;;;;;;;5.50;2.97;;;;;;;;;;5053444;28;20060;-69
2023/07/15 04:50:01;;;;;;;6.93;2.90;;;;;;;;;;5053326;28;20043;-65
2023/07/15 04:52:27;;;;;;;7.68;2.70;;;;;;;;;;5052991;28;20028;-66
2023/07/15 04:54:52;;;;;;;7.82;2.70;;;;;;;;;;5053239;28;20032;-68
2023/07/15 04:57:19;;;;;;;4.75;2.67;;;;;;;;;;5053294;28;20025;-68
2023/07/15 04:59:45;;;;;;;6.47;2.92;;;;;;;;;;5052911;28;20031;-65
2023/07/15 05:02:11;;;;;;;8.90;3.15;;;;;;;;;;5053055;28;20522;-70
2023/07/15 05:04:37;;;;;;;3.42;2.38;;;;;;;;;;5053282;28;20017;-68
2023/07/15 05:07:02;;;;;;;6.32;2.63;;;;;;;;;;5053061;28;20470;-70
2023/07/15 05:09:30;;;;;;;6.45;3.13;;;;;;;;;;5053045;28;20117;-69
2023/07/15 05:11:57;;;;;;;5.50;3.10;;;;;;;;;;5052672;28;20028;-70
2023/07/15 05:14:22;;;;;;;4.55;2.47;;;;;;;;;;5052644;28;20072;-67
2023/07/15 05:16:48;;;;;;;6.35;2.40;;;;;;;;;;5052707;28;20069;-71
2023/07/15 05:19:13;;;;;;;5.03;2.70;;;;;;;;;;5056205;28;20183;-66
2023/07/15 05:21:38;;;;;;;3.97;2.42;;;;;;;;;;5072755;28;20074;-69
2023/07/15 05:24:04;;;;;;;6.45;2.78;;;;;;;;;;5060248;28;20033;-69
2023/07/15 05:26:30;;;;;;;8.38;2.85;;;;;;;;;;5064343;28;20477;-73
2023/07/15 05:28:56;;;;;;;6.78;2.60;;;;;;;;;;5072425;28;20028;-67
2023/07/15 05:31:21;;;;;;;5.32;2.50;;;;;;;;;;5072717;28;20052;-68
2023/07/15 05:33:47;;;;;;;6.20;2.60;;;;;;;;;;5072610;28;20040;-66
2023/07/15 05:36:13;;;;;;;8.65;2.65;;;;;;;;;;5072348;28;20021;-69
2023/07/15 05:38:43;;;;;;;5.13;2.38;;;;;;;;;;5072550;28;20350;-70
2023/07/15 05:41:10;;;;;;;3.65;2.25;;;;;;;;;;5072521;28;20056;-71
2023/07/15 05:43:35;;;;;;;5.25;2.47;;;;;;;;;;5054406;28;20062;-70
2023/07/15 05:46:01;;;;;;;5.55;2.40;;;;;;;;;;5072481;28;20029;-66
2023/07/15 05:48:26;;;;;;;4.78;2.53;;;;;;;;;;5072583;28;20021;-67
2023/07/15 05:50:51;;;;;;;6.00;2.58;;;;;;;;;;5072405;28;20389;-66
2023/07/15 05:53:17;;;;;;;4.68;2.25;;;;;;;;;;5072389;28;20043;-67
2023/07/15 05:55:42;;;;;;;4.60;2.50;;;;;;;;;;5072493;28;20389;-68
2023/07/15 05:58:10;;;;;;;3.95;2.40;;;;;;;;;;5072067;28;20017;-71
2023/07/15 06:00:38;;;;;;;3.72;2.28;;;;;;;;;;5072018;28;20389;-72
2023/07/15 06:03:03;;;;;;;8.57;2.53;;;;;;;;;;5072012;28;20090;-73
2023/07/15 06:05:30;;;;;;;5.03;2.40;;;;;;;;;;5072028;28;20412;-66
2023/07/15 06:07:55;;;;;;;4.30;2.30;;;;;;;;;;5072073;28;20021;-65
2023/07/15 06:10:20;;;;;;;3.75;2.30;;;;;;;;;;5071884;28;20484;-69
2023/07/15 06:12:46;;;;;;;5.13;2.30;;;;;;;;;;5071653;28;20020;-67
2023/07/15 06:15:11;;;;;;;3.80;2.20;;;;;;;;;;5071677;28;20036;-69
2023/07/15 06:17:38;;;;;;;4.75;2.50;;;;;;;;;;5071504;28;20033;-70
2023/07/15 06:20:04;;;;;;;4.53;2.45;;;;;;;;;;5071494;28;20493;-70
2023/07/15 06:22:30;;;;;;;5.47;2.45;;;;;;;;;;5071567;28;20029;-67
2023/07/15 06:24:55;;;;;;;3.88;2.60;;;;;;;;;;5052057;28;20367;-71
2023/07/15 06:27:21;;;;;;;4.55;2.47;;;;;;;;;;5070060;28;20051;-73
2023/07/15 06:29:48;;;;;;;5.07;2.65;;;;;;;;;;5071435;28;20142;-72
2023/07/15 06:32:14;;;;;;;4.43;2.60;;;;;;;;;;5071437;28;20025;-70
2023/07/15 06:34:39;;;;;;;5.00;2.80;;;;;;;;;;5071391;28;20073;-67
2023/07/15 06:37:05;;;;;;;4.78;2.53;;;;;;;;;;5061975;28;20056;-65
2023/07/15 06:39:31;;;;;;;5.43;2.42;;;;;;;;;;5051360;28;20382;-68
2023/07/15 06:41:56;;;;;;;4.13;2.67;;;;;;;;;;5050952;28;20032;-68
2023/07/15 06:44:21;;;;;;;4.10;2.50;;;;;;;;;;5051474;28;20450;-69
2023/07/15 06:46:47;;;;;;;4.43;2.58;;;;;;;;;;5051163;28;20377;-67
2023/07/15 06:49:12;;;;;;;4.22;2.45;;;;;;;;;;5051216;28;20108;-70
2023/07/15 06:51:38;;;;;;;5.55;2.72;;;;;;;;;;5051074;28;20118;-70
2023/07/15 06:54:03;;;;;;;4.05;2.55;;;;;;;;;;5050810;28;20106;-70
2023/07/15 06:56:29;;;;;;;4.63;2.50;;;;;;;;;;5034458;28;20067;-74
2023/07/15 06:58:55;;;;;;;5.38;2.40;;;;;;;;;;5053521;28;20029;-75
2023/07/15 07:01:20;;;;;;;3.72;2.55;;;;;;;;;;5046544;28;20025;-77
2023/07/15 07:03:46;;;;;;;3.80;2.58;;;;;;;;;;5054466;28;20120;-74
2023/07/15 07:06:11;;;;;;;4.43;2.47;;;;;;;;;;5056689;28;20024;-70
2023/07/15 07:08:37;;;;;;;4.00;2.95;;;;;;;;;;5063544;28;20074;-71
2023/07/15 07:11:02;;;;;;;6.93;2.47;;;;;;;;;;5060457;28;20063;-73
2023/07/15 07:13:28;;;;;;;5.25;2.50;;;;;;;;;;5063532;28;20024;-68
2023/07/15 07:15:58;;;;;;;6.72;2.40;;;;;;;;;;5061777;28;20534;-71
2023/07/15 07:18:24;;;;;;;5.00;2.40;;;;;;;;;;5068972;28;20505;-63
2023/07/15 07:20:55;;;;;;;5.90;2.55;;;;;;;;;;5070223;28;20076;-71
2023/07/15 07:23:20;;;;;;;4.60;2.50;;;;;;;;;;5064267;28;20130;-71
2023/07/15 07:25:46;;;;;;;5.75;2.35;;;;;;;;;;5055830;28;20454;-71
2023/07/15 07:28:11;;;;;;;6.40;2.70;;;;;;;;;;5069168;28;20031;-72
2023/07/15 07:30:37;;;;;;;5.53;2.20;;;;;;;;;;5070754;28;20021;-73
2023/07/15 07:33:02;;;;;;;6.93;2.78;;;;;;;;;;5069027;28;20036;-70
2023/07/15 07:35:28;;;;;;;5.30;2.40;;;;;;;;;;5069665;28;20025;-72
2023/07/15 07:37:54;;;;;;;3.80;2.70;;;;;;;;;;5053751;28;20021;-72
2023/07/15 07:40:20;;;;;;;3.33;2.42;;;;;;;;;;5049910;28;20086;-72
2023/07/15 07:42:45;;;;;;;4.53;2.10;;;;;;;;;;5050062;28;20033;-70
2023/07/15 07:45:14;;;;;;;8.15;2.63;;;;;;;;;;5050117;28;20465;-71
2023/07/15 07:47:40;;;;;;;4.97;2.40;;;;;;;;;;5050273;28;20040;-69
2023/07/15 07:50:06;;;;;;;3.85;2.38;;;;;;;;;;5050267;28;20281;-70
2023/07/15 07:52:31;;;;;;;5.15;2.33;;;;;;;;;;5050145;28;20021;-72
2023/07/15 07:54:57;;;;;;;3.08;2.10;;;;;;;;;;5050067;28;20051;-63
2023/07/15 07:57:22;;;;;;;6.15;2.40;;;;;;;;;;5050389;28;20057;-71
2023/07/15 07:59:48;;;;;;;6.70;2.40;;;;;;;;;;5049848;28;20374;-71
2023/07/15 08:02:13;;;;;;;6.65;2.38;;;;;;;;;;5050176;28;20051;-71
2023/07/15 08:04:39;;;;;;;4.30;2.42;;;;;;;;;;5050143;28;20084;-63
2023/07/15 08:07:04;;;;;;;4.75;2.42;;;;;;;;;;5050427;28;20025;-71
2023/07/15 08:09:30;;;;;;;3.15;2.25;;;;;;;;;;5053042;28;20043;-64
2023/07/15 08:11:56;;;;;;;4.93;2.42;;;;;;;;;;5053929;28;20029;-70
2023/07/15 08:14:21;;;;;;;4.35;2.45;;;;;;;;;;5054028;28;20032;-71
2023/07/15 08:16:46;;;;;;;8.43;2.08;;;;;;;;;;5053928;28;20040;-72
2023/07/15 08:19:12;;;;;;;4.43;1.98;;;;;;;;;;5057040;28;20354;-70
2023/07/15 08:21:38;;;;;;;3.38;1.90;;;;;;;;;;5073945;28;20343;-72
2023/07/15 08:24:03;;;;;;;6.90;2.45;;;;;;;;;;5061538;28;20128;-72
2023/07/15 08:26:29;;;;;;;5.10;2.40;;;;;;;;;;5065371;28;20111;-66
2023/07/15 08:28:55;;;;;;;3.60;2.38;;;;;;;;;;5073769;28;20489;-72
2023/07/15 08:31:21;;;;;;;7.20;2.28;;;;;;;;;;5073708;28;20435;-67
2023/07/15 08:33:47;;;;;;;5.05;2.38;;;;;;;;;;5073671;28;20466;-71
2023/07/15 08:36:13;;;;;;;4.57;2.08;;;;;;;;;;5067485;28;20029;-72
2023/07/15 08:38:38;;;;;;;4.43;2.10;;;;;;;;;;5073494;28;20025;-71
2023/07/15 08:41:04;;;;;;;5.68;2.30;;;;;;;;;;5073463;28;20382;-71
2023/07/15 08:43:32;;;;;;;6.65;1.95;;;;;;;;;;5073260;28;20104;-69
2023/07/15 08:46:06;;;;;;;7.95;2.33;;;;;;;;;;5073458;28;20029;-71
2023/07/15 08:48:32;;;;;;;4.50;1.85;;;;;;;;;;5073489;28;20078;-64
2023/07/15 08:51:00;;;;;;;4.38;2.25;;;;;;;;;;5055446;28;20485;-65
2023/07/15 08:53:28;;;;;;;3.95;1.95;;;;;;;;;;5073095;28;20057;-66
2023/07/15 08:55:57;;;;;;;4.68;2.10;;;;;;;;;;5073112;28;20012;-69
2023/07/15 08:58:24;;;;;;;8.23;2.30;;;;;;;;;;5073245;28;20028;-67
2023/07/15 09:00:52;;;;;;;5.40;2.30;;;;;;;;;;5073328;28;20366;-69
2023/07/15 09:03:19;;;;;;;4.93;2.30;;;;;;;;;;5073120;28;20017;-65
2023/07/15 09:05:45;;;;;;;3.47;1.80;;;;;;;;;;5072996;28;20024;-68
2023/07/15 09:08:12;;;;;;;6.90;2.20;;;;;;;;;;5072787;28;20020;-64
2023/07/15 09:11:07;;;;;;;6.03;1.98;;;;;;;;;;5072780;28;20097;-64
2023/07/15 09:13:34;;;;;;;4.30;2.03;;;;;;;;;;5055443;28;20062;-64
2023/07/15 09:16:01;;;;;;;5.13;2.00;;;;;;;;;;5068728;28;20021;-69
2023/07/15 09:18:27;;;;;;;4.75;1.80;;;;;;;;;;5052639;28;20049;-63
2023/07/15 09:21:10;;;;;;;6.53;2.03;;;;;;;;;;5069167;28;20473;-63
2023/07/15 09:23:41;;;;;;;4.35;1.88;;;;;;;;;;5064069;28;20033;-70
2023/07/15 09:26:08;;;;;;;3.15;1.83;;;;;;;;;;5060900;28;20352;-64
2023/07/15 09:28:37;;;;;;;5.70;2.30;;;;;;;;;;5072811;28;20034;-65
2023/07/15 09:31:03;;;;;;;3.97;1.85;;;;;;;;;;5072786;28;20032;-64
2023/07/15 09:33:38;;;;;;;5.00;2.03;;;;;;;;;;5072611;28;20017;-68
2023/07/15 09:36:04;;;;;;;5.75;1.80;;;;;;;;;;5071483;28;20032;-71
2023/07/15 09:38:37;;;;;;;5.78;1.75;;;;;;;;;;5052561;28;20123;-63
2023/07/15 09:41:05;;;;;;;3.92;1.70;;;;;;;;;;5052627;28;20036;-69
2023/07/15 09:43:51;;;;;;;4.32;1.60;;;;;;;;;;5052347;28;20025;-64
2023/07/15 09:46:18;;;;;;;2.97;1.75;;;;;;;;;;5052245;28;20021;-68
2023/07/15 09:48:44;;;;;;;4.50;1.67;;;;;;;;;;5052394;28;20078;-70
2023/07/15 09:51:12;;;;;;;7.25;1.90;;;;;;;;;;5051873;28;20036;-73
2023/07/15 09:53:42;;;;;;;7.55;1.90;;;;;;;;;;5052230;28;20060;-66
2023/07/15 09:56:09;;;;;;;5.53;1.88;;;;;;;;;;5057666;28;20026;-71
2023/07/15 09:58:38;;;;;;;4.70;1.92;;;;;;;;;;5072219;28;20063;-68
2023/07/15 10:01:07;;;;;;;;;;;;;;;;;;5072487;28;20024;-68
2023/07/15 10:03:42;;;;;;;3.50;1.88;;;;;;;;;;5071962;28;20331;-71
2023/07/15 10:06:08;;;;;;;3.75;2.03;;;;;;;;;;5071498;28;20453;-63
2023/07/15 10:08:34;;;;;;;6.07;1.73;;;;;;;;;;5072134;28;20039;-65
2023/07/15 10:11:00;;;;;;;8.95;2.20;;;;;;;;;;5058769;28;20075;-71
2023/07/15 10:13:27;;;;;;;7.10;2.28;;;;;;;;;;5051824;28;20166;-67
2023/07/15 10:15:52;;;;;;;4.93;2.20;;;;;;;;;;5051755;28;20056;-69
2023/07/15 10:18:19;;;;;;;4.70;1.98;;;;;;;;;;5051382;28;20079;-65
2023/07/15 10:20:56;;;;;;;3.88;1.75;;;;;;;;;;5067396;28;20332;-68
2023/07/15 10:23:26;;;;;;;4.00;2.00;;;;;;;;;;5065234;28;20465;-68
2023/07/15 10:26:00;;;;;;;5.00;1.80;;;;;;;;;;5057646;28;20078;-66
2023/07/15 10:28:39;;;;;;;4.30;2.00;;;;;;;;;;5071258;28;20419;-66
2023/07/15 10:31:09;;;;;;;4.88;1.77;;;;;;;;;;5070780;28;20036;-71
2023/07/15 10:33:38;;;;;;;5.90;1.88;;;;;;;;;;5071294;28;20501;-70
2023/07/15 10:36:05;;;;;;;4.97;1.73;;;;;;;;;;5070412;28;20028;-66
2023/07/15 10:38:32;;;;;;;10.70;2.10;;;;;;;;;;5051370;28;20029;-67
2023/07/15 10:41:02;;;;;;;6.05;2.00;;;;;;;;;;5051384;28;20029;-64
2023/07/15 10:43:34;;;;;;;8.60;2.10;;;;;;;;;;5051516;28;20155;-74
2023/07/15 10:46:04;;;;;;;3.03;1.83;;;;;;;;;;5051999;28;20025;-72
2023/07/15 10:48:33;;;;;;;4.55;1.92;;;;;;;;;;5071165;28;20563;-73
2023/07/15 10:51:02;;;;;;;2.30;1.85;;;;;;;;;;5071278;28;20021;-71
2023/07/15 10:53:34;;;;;;;4.57;1.70;;;;;;;;;;5071375;28;20025;-72
2023/07/15 10:56:02;;;;;;;6.68;2.38;;;;;;;;;;5071168;28;20150;-72
2023/07/15 10:58:29;;;;;;;4.75;2.38;;;;;;;;;;5071391;28;20461;-73
2023/07/15 11:01:08;;;;;;;3.55;1.70;;;;;;;;;;5071178;28;20099;-70
2023/07/15 11:03:39;;;;;;;5.15;1.83;;;;;;;;;;5070880;28;20025;-73
2023/07/15 11:06:05;;;;;;;3.95;2.15;;;;;;;;;;5071233;28;20503;-72
2023/07/15 11:08:32;;;;;;;3.58;1.80;;;;;;;;;;5071290;28;20048;-74
2023/07/15 11:11:05;;;;;;;6.95;2.25;;;;;;;;;;5070864;28;20039;-69
2023/07/15 11:13:35;;;;;;;6.47;1.90;;;;;;;;;;5070990;28;20504;-74
2023/07/15 11:16:00;;;;;;;11.40;1.70;;;;;;;;;;5052998;28;20039;-74
2023/07/15 11:18:27;;;;;;;3.63;1.73;;;;;;;;;;5070539;28;20128;-73
2023/07/15 11:20:55;;;;;;;5.28;1.90;;;;;;;;;;5070892;28;20119;-74
2023/07/15 11:23:20;;;;;;;5.60;2.17;;;;;;;;;;5046693;28;20039;-72
2023/07/15 11:25:46;;;;;;;4.35;2.03;;;;;;;;;;5056137;28;20024;-73
2023/07/15 11:28:12;;;;;;;4.40;1.75;;;;;;;;;;5052803;28;20029;-71
2023/07/15 11:30:39;;;;;;;5.25;1.92;;;;;;;;;;5070614;28;20023;-72
2023/07/15 11:33:06;;;;;;;5.75;2.38;;;;;;;;;;5070417;28;20025;-74
2023/07/15 11:35:37;;;;;;;4.20;2.00;;;;;;;;;;5070421;28;20025;-73
2023/07/15 11:38:14;;;;;;;5.60;2.10;;;;;;;;;;5060961;28;20059;-73
2023/07/15 11:40:53;;;;;;;2.58;1.73;;;;;;;;;;5058393;28;20036;-76
2023/07/15 11:43:20;;;;;;;6.43;2.20;;;;;;;;;;5040434;28;20033;-72
2023/07/15 11:45:46;;;;;;;4.00;2.15;;;;;;;;;;5062846;28;20031;-71
2023/07/15 11:48:12;;;;;;;4.85;1.80;;;;;;;;;;5070198;28;20028;-73
2023/07/15 11:50:37;;;;;;;3.45;1.77;;;;;;;;;;5051387;28;20025;-72
2023/07/15 11:53:03;;;;;;;3.92;1.80;;;;;;;;;;5050536;28;20422;-74
2023/07/15 11:55:29;;;;;;;4.65;1.90;;;;;;;;;;5050063;28;20545;-74
2023/07/15 11:57:55;;;;;;;3.25;1.90;;;;;;;;;;5038325;28;20115;-69
2023/07/15 12:00:26;;;;;;;4.22;1.98;;;;;;;;;;5068225;28;20218;-68
2023/07/15 12:02:53;;;;;;;5.25;1.55;;;;;;;;;;5067506;28;20028;-68
2023/07/15 12:05:19;;;;;;;5.35;2.00;;;;;;;;;;5068349;28;20029;-76
2023/07/15 12:07:49;;;;;;;5.13;2.03;;;;;;;;;;5050123;28;20050;-67
2023/07/15 12:10:16;;;;;;;5.90;2.10;;;;;;;;;;5068155;28;20070;-72
2023/07/15 12:12:45;;;;;;;5.80;1.90;;;;;;;;;;5068644;28;20082;-66
2023/07/15 12:15:17;;;;;;;3.35;1.85;;;;;;;;;;5063569;28;20043;-71
2023/07/15 12:17:43;;;;;;;4.13;1.77;;;;;;;;;;5052108;28;20049;-74
2023/07/15 12:20:10;;;;;;;3.70;2.30;;;;;;;;;;5069847;28;20051;-72
2023/07/15 12:22:36;;;;;;;4.88;2.00;;;;;;;;;;5069943;28;20024;-73
2023/07/15 12:25:02;;;;;;;3.72;2.08;;;;;;;;;;5050016;28;20021;-73
2023/07/15 12:27:28;;;;;;;5.15;2.10;;;;;;;;;;5069538;28;20070;-74
2023/07/15 12:29:54;;;;;;;3.40;1.52;;;;;;;;;;5069884;28;20111;-73
2023/07/15 12:32:19;;;;;;;6.18;1.88;;;;;;;;;;5069877;28;20420;-74
2023/07/15 12:34:45;;;;;;;6.13;2.10;;;;;;;;;;5069994;28;20123;-74
2023/07/15 12:37:10;;;;;;;3.78;1.83;;;;;;;;;;5069964;28;20296;-68
2023/07/15 12:39:35;;;;;;;4.00;1.90;;;;;;;;;;5069920;28;20430;-73
2023/07/15 12:42:01;;;;;;;5.55;1.75;;;;;;;;;;5069705;28;20500;-76
2023/07/15 12:44:26;;;;;;;3.67;1.60;;;;;;;;;;5064534;28;20104;-74
2023/07/15 12:46:52;;;;;;;2.97;1.67;;;;;;;;;;5049918;28;20131;-73
2023/07/15 12:49:17;;;;;;;2.83;1.70;;;;;;;;;;5056887;28;20031;-73
2023/07/15 12:51:43;;;;;;;3.08;1.80;;;;;;;;;;5058147;28;20020;-74
2023/07/15 12:54:08;;;;;;;3.55;1.73;;;;;;;;;;5070402;28;20047;-71
2023/07/15 12:56:34;;;;;;;9.85;2.90;;;;;;;;;;5073325;28;20017;-73
2023/07/15 12:58:59;;;;;;;5.80;1.85;;;;;;;;;;5073112;28;20040;-71
2023/07/15 13:01:24;;;;;;;4.38;2.00;;;;;;;;;;5073543;28;20431;-64
2023/07/15 13:03:50;;;;;;;4.60;2.00;;;;;;;;;;5070349;28;20021;-73
2023/07/15 13:06:15;;;;;;;4.28;2.05;;;;;;;;;;5053096;28;20029;-73
2023/07/15 13:08:41;;;;;;;2.78;1.85;;;;;;;;;;5053058;28;20029;-72
2023/07/15 13:11:06;;;;;;;4.03;1.90;;;;;;;;;;5052938;28;20029;-71
2023/07/15 13:13:32;;;;;;;6.30;1.80;;;;;;;;;;5052736;28;20033;-65
2023/07/15 13:15:57;;;;;;;2.42;1.50;;;;;;;;;;5052883;28;20147;-63
2023/07/15 13:18:23;;;;;;;6.43;1.77;;;;;;;;;;5052699;28;20076;-63
2023/07/15 13:20:48;;;;;;;5.70;2.28;;;;;;;;;;5069172;28;20036;-64
2023/07/15 13:23:13;;;;;;;3.25;2.00;;;;;;;;;;5067956;28;20100;-69
2023/07/15 13:25:39;;;;;;;4.60;1.90;;;;;;;;;;5057618;28;20411;-63
2023/07/15 13:28:05;;;;;;;3.88;1.90;;;;;;;;;;5072531;28;20081;-64
2023/07/15 13:30:30;;;;;;;3.35;1.70;;;;;;;;;;5072761;28;20016;-70
2023/07/15 13:32:56;;;;;;;2.78;1.60;;;;;;;;;;5072814;28;20097;-71
2023/07/15 13:35:21;;;;;;;4.30;1.80;;;;;;;;;;5072702;28;20115;-73
2023/07/15 13:37:46;;;;;;;3.50;1.90;;;;;;;;;;5072707;28;20103;-73
2023/07/15 13:40:12;;;;;;;3.83;1.80;;;;;;;;;;5072465;28;20024;-69
2023/07/15 13:42:37;;;;;;;2.38;1.60;;;;;;;;;;5063110;28;20221;-71
2023/07/15 13:45:03;;;;;;;5.10;1.77;;;;;;;;;;5052380;28;20431;-63
2023/07/15 13:47:29;;;;;;;5.00;1.60;;;;;;;;;;5052668;28;20021;-70
2023/07/15 13:49:56;;;;;;;3.17;1.63;;;;;;;;;;5066432;28;20048;-65
2023/07/15 13:52:22;;;;;;;3.97;1.70;;;;;;;;;;5072198;28;20028;-67
2023/07/15 13:54:48;;;;;;;4.15;1.80;;;;;;;;;;5072449;28;20445;-75
2023/07/15 13:57:13;;;;;;;2.30;1.65;;;;;;;;;;5054301;28;20034;-66
2023/07/15 13:59:39;;;;;;;4.07;1.60;;;;;;;;;;5070891;28;20039;-66
2023/07/15 14:02:05;;;;;;;2.33;1.52;;;;;;;;;;5052161;28;20082;-73
2023/07/15 14:04:31;;;;;;;5.03;1.70;;;;;;;;;;5052172;28;20041;-72
2023/07/15 14:06:57;;;;;;;6.25;1.90;;;;;;;;;;5050671;28;20025;-73
2023/07/15 14:09:22;;;;;;;6.35;2.42;;;;;;;;;;5052086;28;20039;-72
2023/07/15 14:11:47;;;;;;;5.40;1.90;;;;;;;;;;5051452;28;20033;-71
2023/07/15 14:14:16;;;;;;;3.38;1.63;;;;;;;;;;5051866;28;20111;-73
2023/07/15 14:16:42;;;;;;;3.60;1.60;;;;;;;;;;5051661;28;20041;-65
2023/07/15 14:19:07;;;;;;;2.97;1.73;;;;;;;;;;5054142;28;20398;-67
2023/07/15 14:21:33;;;;;;;5.97;1.88;;;;;;;;;;5071596;28;20482;-73
2023/07/15 14:24:03;;;;;;;3.45;1.90;;;;;;;;;;5060298;28;20033;-68
2023/07/15 14:26:29;;;;;;;4.18;1.63;;;;;;;;;;5062631;28;20028;-66
2023/07/15 14:28:55;;;;;;;2.80;1.65;;;;;;;;;;5071590;28;20067;-71
2023/07/15 14:31:21;;;;;;;4.10;1.50;;;;;;;;;;5071397;28;20406;-68
2023/07/15 14:33:47;;;;;;;4.88;1.80;;;;;;;;;;5071360;28;20020;-65
2023/07/15 14:36:13;;;;;;;3.80;1.60;;;;;;;;;;5053483;28;20241;-68
2023/07/15 14:38:39;;;;;;;5.57;2.05;;;;;;;;;;5071522;28;20033;-68
2023/07/15 14:41:04;;;;;;;2.00;1.40;;;;;;;;;;5071145;28;20511;-67